Terminal Aerodrome Forecast
Issued by NWS

Current Version | Previous Version | Text Only | Print | Product List | Glossary On
Versions: 1 2 3 4 5 6 7 8 9 10 11 12 13 14 15 16 17 18 19 20 21 22 23 24 25
000
FTUS43 KJKL 210500
TAFSME
TAF
KSME 210540Z 2106/2206 VRB03KT P6SM BKN250
     FM210800 00000KT 4SM BR SCT250
     FM211000 00000KT 1/2SM FG BKN002
     FM211300 VRB03KT P6SM SCT250
     FM211500 25006KT P6SM VCTS SCT020CB BKN040=

USA.gov is the U.S. government's official web portal to all federal, state and local government web resources and services.